Time;durP1;ratioP1;P1;durP2;ratioP2;P2;SDS_P1;SDS_P2;PMS_P1;PMS_P2;Temp;Humidity;BMP_temperature;BMP_pressure;BME280_temperature;BME280_humidity;BME280_pressure;Samples;Min_cycle;Max_cycle;Signal;HPM_P1;HPM_P2
2022/06/03 00:01:48;;;;;;;;;;;14.40;99.90;;;;;;5075305;28;19912;-83
2022/06/03 00:04:20;;;;;;;;;;;14.40;99.90;;;;;;5079345;28;20361;-83
2022/06/03 00:07:01;;;;;;;;;;;14.40;99.90;;;;;;5061806;28;19924;-83
2022/06/03 00:09:35;;;;;;;;;;;14.30;99.90;;;;;;5066396;28;19923;-83
2022/06/03 00:12:03;;;;;;;;;;;14.30;99.90;;;;;;5061254;28;19921;-83
2022/06/03 00:14:35;;;;;;;;;;;14.30;99.90;;;;;;5066056;28;19913;-83
2022/06/03 00:17:09;;;;;;;;;;;14.20;99.90;;;;;;5060870;28;19932;-83
2022/06/03 00:19:41;;;;;;;;;;;14.20;99.90;;;;;;5062101;28;19979;-83
2022/06/03 00:22:17;;;;;;;;;;;14.20;99.90;;;;;;5067025;28;19962;-83
2022/06/03 00:24:42;;;;;;;;;;;14.20;99.90;;;;;;5060753;28;19925;-82
2022/06/03 00:27:20;;;;;;;;;;;14.20;99.90;;;;;;5068571;28;19912;-84
2022/06/03 00:29:53;;;;;;;;;;;14.10;99.90;;;;;;5072720;28;19916;-84
2022/06/03 00:32:22;;;;;;;;;;;14.10;99.90;;;;;;5057644;28;20303;-83
2022/06/03 00:35:00;;;;;;;;;;;14.00;99.90;;;;;;5060614;28;19920;-83
2022/06/03 00:37:28;;;;;;;;;;;14.00;99.90;;;;;;5062715;28;19916;-83
2022/06/03 00:40:00;;;;;;;;;;;13.90;99.90;;;;;;5059072;28;19913;-83
2022/06/03 00:42:48;;;;;;;;;;;13.90;99.90;;;;;;5066623;28;19913;-84
2022/06/03 00:45:19;;;;;;;;;;;13.80;99.90;;;;;;5079000;28;20285;-84
2022/06/03 00:47:48;;;;;;;;;;;13.70;99.90;;;;;;5071586;28;19968;-82
2022/06/03 00:50:25;;;;;;;;;;;13.60;99.90;;;;;;5068016;28;19924;-84
2022/06/03 00:53:09;;;;;;;;;;;13.60;99.90;;;;;;5072205;28;19934;-84
2022/06/03 00:55:47;;;;;;;;;;;13.50;99.90;;;;;;5070961;28;19962;-82
2022/06/03 00:58:21;;;;;;;;;;;13.50;99.90;;;;;;5083502;28;19936;-84
2022/06/03 01:00:50;;;;;;;;;;;13.50;99.90;;;;;;5078514;28;19913;-83
2022/06/03 01:03:20;;;;;;;;;;;13.50;99.90;;;;;;5082576;28;19921;-83
2022/06/03 01:06:01;;;;;;;;;;;13.50;99.90;;;;;;5067039;28;19923;-82
2022/06/03 01:08:32;;;;;;;;;;;13.50;99.90;;;;;;5061969;28;19940;-83
2022/06/03 01:11:18;;;;;;;;;;;13.40;99.90;;;;;;5068312;28;19941;-84
2022/06/03 01:13:53;;;;;;;;;;;13.40;99.90;;;;;;5065909;28;20004;-83
2022/06/03 01:16:37;;;;;;;;;;;13.40;99.90;;;;;;5085005;28;19974;-84
2022/06/03 01:19:20;;;;;;;;;;;13.30;1.00;;;;;;5060963;28;19920;-84
2022/06/03 01:22:01;;;;;;;;;;;13.30;1.00;;;;;;5068663;28;19973;-84
2022/06/03 01:24:41;;;;;;;;;;;13.30;1.00;;;;;;5078141;28;19939;-84
2022/06/03 01:27:25;;;;;;;;;;;13.30;1.00;;;;;;5084099;28;19914;-83
2022/06/03 01:29:54;;;;;;;;;;;13.30;1.00;;;;;;5066722;28;19913;-84
2022/06/03 01:32:25;;;;;;;;;;;13.30;1.00;;;;;;5076757;28;19913;-83
2022/06/03 01:35:00;;;;;;;;;;;13.20;1.00;;;;;;5069760;28;20327;-83
2022/06/03 01:37:39;;;;;;;;;;;13.10;1.00;;;;;;5063632;28;19912;-84
2022/06/03 01:40:10;;;;;;;;;;;13.10;1.00;;;;;;5063269;28;20130;-83
2022/06/03 01:42:44;;;;;;;;;;;13.00;1.00;;;;;;5069553;28;19916;-84
2022/06/03 01:45:22;;;;;;;;;;;13.00;1.00;;;;;;5085024;28;19988;-84
2022/06/03 01:47:59;;;;;;;;;;;13.00;1.00;;;;;;5065450;28;19912;-82
2022/06/03 01:50:25;;;;;;;;;;;13.00;1.00;;;;;;5063882;28;19909;-84
2022/06/03 01:52:50;;;;;;;;;;;12.90;1.00;;;;;;5075744;28;19948;-84
2022/06/03 01:55:25;;;;;;;;;;;12.90;1.00;;;;;;5061062;28;19921;-84
2022/06/03 01:57:59;;;;;;;;;;;12.90;1.00;;;;;;5064164;28;20304;-83
2022/06/03 02:00:38;;;;;;;;;;;12.90;1.00;;;;;;5063148;28;19951;-82
2022/06/03 02:03:22;;;;;;;;;;;13.00;1.00;;;;;;5070908;28;19920;-83
2022/06/03 02:05:54;;;;;;;;;;;12.90;1.00;;;;;;5080718;28;19924;-84
2022/06/03 02:08:25;;;;;;;;;;;12.90;1.00;;;;;;5083003;28;19913;-84
2022/06/03 02:11:03;;;;;;;;;;;13.00;1.00;;;;;;5081160;28;20332;-84
2022/06/03 02:13:38;;;;;;;;;;;13.00;1.00;;;;;;5069301;28;19948;-83
2022/06/03 02:16:19;;;;;;;;;;;13.00;1.00;;;;;;5069221;28;19968;-82
2022/06/03 02:19:13;;;;;;;;;;;13.00;1.00;;;;;;5071527;28;19912;-83
2022/06/03 02:21:57;;;;;;;;;;;13.00;1.00;;;;;;5062968;28;19919;-83
2022/06/03 02:24:28;;;;;;;;;;;13.00;1.00;;;;;;5062531;28;19913;-83
2022/06/03 02:27:00;;;;;;;;;;;13.00;1.00;;;;;;5064416;28;19913;-84
2022/06/03 02:32:46;;;;;;;;;;;12.90;1.00;;;;;;5059486;28;19978;-84
2022/06/03 02:35:12;;;;;;;;;;;12.80;1.00;;;;;;5061862;28;19932;-83
2022/06/03 02:37:46;;;;;;;;;;;12.70;1.00;;;;;;5068542;28;20289;-83
2022/06/03 02:40:35;;;;;;;;;;;12.70;1.00;;;;;;5077854;28;19956;-83
2022/06/03 02:43:01;;;;;;;;;;;12.70;1.00;;;;;;5070100;28;19917;-83
2022/06/03 02:45:26;;;;;;;;;;;12.70;1.00;;;;;;5070898;28;19912;-83
2022/06/03 02:48:14;;;;;;;;;;;12.70;1.00;;;;;;5063433;28;19917;-83
2022/06/03 02:50:40;;;;;;;;;;;12.70;1.00;;;;;;5058387;28;19912;-83
2022/06/03 02:53:20;;;;;;;;;;;12.70;1.00;;;;;;5072537;28;20031;-83
2022/06/03 02:55:45;;;;;;;;;;;12.70;1.00;;;;;;5061176;28;20377;-83
2022/06/03 02:58:11;;;;;;;;;;;12.60;1.00;;;;;;5074181;28;19913;-83
2022/06/03 03:00:37;;;;;;;;;;;12.60;1.00;;;;;;5056004;28;19912;-83
2022/06/03 03:03:06;;;;;;;;;;;12.60;1.00;;;;;;5076428;28;19912;-83
2022/06/03 03:05:36;;;;;;;;;;;12.50;37.20;;;;;;5058522;28;19917;-83
2022/06/03 03:08:20;;;;;;;;;;;12.50;33.20;;;;;;5060744;28;19993;-84
2022/06/03 03:10:57;;;;;;;;;;;12.50;15.30;;;;;;5056213;28;19960;-83
2022/06/03 03:13:23;;;;;;;;;;;12.50;1.00;;;;;;5053343;28;19916;-83
2022/06/03 03:15:59;;;;;;;;;;;12.50;1.00;;;;;;5057956;28;19996;-83
2022/06/03 03:18:34;;;;;;;;;;;12.60;1.00;;;;;;5068638;28;19913;-83
2022/06/03 03:21:00;;;;;;;;;;;12.60;1.00;;;;;;5056341;28;19928;-83
2022/06/03 03:23:49;;;;;;;;;;;12.60;1.00;;;;;;5078460;28;19916;-83
2022/06/03 03:26:15;;;;;;;;;;;12.60;1.00;;;;;;5064450;28;19947;-83
2022/06/03 03:28:43;;;;;;;;;;;12.60;1.00;;;;;;5063858;28;20333;-83
2022/06/03 03:31:09;;;;;;;;;;;12.60;1.00;;;;;;5082209;28;19983;-83
2022/06/03 03:33:37;;;;;;;;;;;12.60;1.00;;;;;;5060528;28;19955;-83
2022/06/03 03:36:09;;;;;;;;;;;12.60;51.70;;;;;;5059635;28;20392;-83
2022/06/03 03:38:41;;;;;;;;;;;12.60;28.20;;;;;;5068501;28;19971;-83
2022/06/03 03:41:20;;;;;;;;;;;12.60;1.00;;;;;;5061741;28;19917;-83
2022/06/03 03:43:52;;;;;;;;;;;12.60;1.00;;;;;;5074602;28;20387;-82
2022/06/03 03:46:46;;;;;;;;;;;12.60;1.00;;;;;;5062448;28;19913;-83
2022/06/03 03:49:27;;;;;;;;;;;12.60;1.00;;;;;;5059133;28;19931;-83
2022/06/03 03:52:15;;;;;;;;;;;12.70;1.00;;;;;;5068212;28;20296;-82
2022/06/03 03:54:41;;;;;;;;;;;12.70;1.00;;;;;;5078533;28;19920;-83
2022/06/03 03:57:25;;;;;;;;;;;12.70;1.00;;;;;;5077830;28;19912;-83
2022/06/03 04:00:06;;;;;;;;;;;12.80;1.00;;;;;;5059687;28;20704;-81
2022/06/03 04:02:41;;;;;;;;;;;12.80;1.00;;;;;;5060151;28;19913;-84
2022/06/03 04:05:26;;;;;;;;;;;12.80;1.00;;;;;;5061217;28;19945;-83
2022/06/03 04:08:10;;;;;;;;;;;12.80;1.00;;;;;;5058195;28;19944;-84
2022/06/03 04:10:36;;;;;;;;;;;12.80;1.00;;;;;;5062800;28;19916;-83
2022/06/03 04:13:20;;;;;;;;;;;12.80;1.00;;;;;;5063575;28;20044;-83
2022/06/03 04:15:49;;;;;;;;;;;12.80;1.00;;;;;;5063492;28;19920;-84
2022/06/03 04:18:33;;;;;;;;;;;12.90;1.00;;;;;;5062955;28;19935;-84
2022/06/03 04:21:04;;;;;;;;;;;13.00;1.00;;;;;;5060997;28;19919;-84
2022/06/03 04:23:29;;;;;;;;;;;13.00;1.00;;;;;;5080021;28;20383;-83
2022/06/03 04:26:07;;;;;;;;;;;13.10;1.00;;;;;;5065005;28;19913;-82
2022/06/03 04:28:35;;;;;;;;;;;13.20;1.00;;;;;;5066195;28;19919;-82
2022/06/03 04:31:16;;;;;;;;;;;13.30;1.00;;;;;;5070354;28;19919;-83
2022/06/03 04:34:00;;;;;;;;;;;13.30;1.00;;;;;;5077678;28;20007;-83
2022/06/03 04:36:25;;;;;;;;;;;13.30;1.00;;;;;;5085438;28;19920;-83
2022/06/03 04:39:29;;;;;;;;;;;13.30;1.00;;;;;;5062668;28;19919;-84
2022/06/03 04:42:04;;;;;;;;;;;13.40;1.00;;;;;;5075672;28;19913;-83
2022/06/03 04:44:51;;;;;;;;;;;13.50;1.00;;;;;;5066351;28;20007;-83
2022/06/03 04:47:25;;;;;;;;;;;13.50;1.00;;;;;;5066341;28;19913;-83
2022/06/03 04:49:54;;;;;;;;;;;13.70;1.00;;;;;;5075254;28;20337;-83
2022/06/03 04:52:38;;;;;;;;;;;13.80;99.90;;;;;;5080688;28;19920;-83
2022/06/03 04:55:07;;;;;;;;;;;13.90;99.90;;;;;;5074580;28;19924;-83
2022/06/03 04:57:36;;;;;;;;;;;14.00;99.90;;;;;;5065628;28;19920;-83
2022/06/03 05:00:04;;;;;;;;;;;14.10;99.90;;;;;;5062958;28;20055;-84
2022/06/03 05:02:48;;;;;;;;;;;14.20;99.90;;;;;;5082714;28;19952;-83
2022/06/03 05:05:17;;;;;;;;;;;14.30;99.90;;;;;;5080991;28;19916;-83
2022/06/03 05:07:58;;;;;;;;;;;14.40;99.90;;;;;;5064766;28;19927;-83
2022/06/03 05:10:46;;;;;;;;;;;14.50;99.90;;;;;;5079983;28;19917;-83
2022/06/03 05:13:32;;;;;;;;;;;14.60;99.90;;;;;;5071698;28;19913;-83
2022/06/03 05:16:17;;;;;;;;;;;14.80;99.90;;;;;;5061650;28;19924;-82
2022/06/03 05:18:51;;;;;;;;;;;14.90;99.90;;;;;;5066938;28;19916;-83
2022/06/03 05:21:31;;;;;;;;;;;15.00;99.90;;;;;;5069810;28;19920;-83
2022/06/03 05:24:18;;;;;;;;;;;15.20;99.90;;;;;;5063356;28;20007;-82
2022/06/03 05:27:02;;;;;;;;;;;15.30;99.90;;;;;;5063220;28;19924;-83
2022/06/03 05:29:30;;;;;;;;;;;15.40;99.90;;;;;;5071566;28;19917;-83
2022/06/03 05:32:15;;;;;;;;;;;15.60;99.90;;;;;;5071974;28;19923;-83
2022/06/03 05:34:55;;;;;;;;;;;15.70;99.90;;;;;;5059650;28;19912;-81
2022/06/03 05:37:39;;;;;;;;;;;15.90;99.90;;;;;;5059548;28;19912;-80
2022/06/03 05:40:07;;;;;;;;;;;16.00;99.90;;;;;;5064149;28;19913;-80
2022/06/03 05:42:39;;;;;;;;;;;16.20;99.90;;;;;;5064585;28;19917;-80
2022/06/03 05:45:17;;;;;;;;;;;16.50;99.90;;;;;;5064950;28;19912;-80
2022/06/03 05:47:48;;;;;;;;;;;16.60;99.90;;;;;;5065699;28;19992;-80
2022/06/03 05:50:17;;;;;;;;;;;16.70;99.90;;;;;;5063153;28;19920;-80
2022/06/03 05:52:55;;;;;;;;;;;16.90;99.90;;;;;;5061794;28;19916;-80
2022/06/03 05:55:39;;;;;;;;;;;17.10;99.90;;;;;;5056940;28;19916;-79
2022/06/03 05:58:13;;;;;;;;;;;17.40;99.90;;;;;;5067520;28;19913;-80
2022/06/03 06:00:46;;;;;;;;;;;17.70;99.90;;;;;;5058368;28;19917;-80
2022/06/03 06:03:12;;;;;;;;;;;18.00;99.90;;;;;;5060504;28;19908;-80
2022/06/03 06:05:41;;;;;;;;;;;18.60;99.90;;;;;;5059455;28;20289;-80
2022/06/03 06:08:22;;;;;;;;;;;20.10;99.90;;;;;;5058324;28;20007;-80
2022/06/03 06:10:53;;;;;;;;;;;22.40;99.90;;;;;;5058826;28;20330;-81
2022/06/03 06:13:22;;;;;;;;;;;25.60;99.90;;;;;;5060510;28;19909;-81
2022/06/03 06:16:09;;;;;;;;;;;28.10;99.90;;;;;;5059156;28;19970;-82
2022/06/03 06:18:47;;;;;;;;;;;29.40;99.90;;;;;;5060573;28;19944;-81
2022/06/03 06:21:31;;;;;;;;;;;30.80;99.90;;;;;;5087982;28;19958;-80
2022/06/03 06:24:04;;;;;;;;;;;31.70;99.90;;;;;;5076680;28;19913;-80
2022/06/03 06:26:45;;;;;;;;;;;33.60;99.90;;;;;;5059175;28;19909;-83
2022/06/03 06:29:38;;;;;;;;;;;33.80;99.90;;;;;;5076891;28;19921;-82
2022/06/03 06:32:22;;;;;;;;;;;34.90;99.90;;;;;;5060364;28;20003;-83
2022/06/03 06:35:07;;;;;;;;;;;36.20;99.90;;;;;;5059897;28;20253;-82
2022/06/03 06:37:33;;;;;;;;;;;35.80;99.90;;;;;;5071021;28;19977;-82
2022/06/03 06:39:58;;;;;;;;;;;36.30;99.90;;;;;;5073232;28;19928;-82
2022/06/03 06:42:42;;;;;;;;;;;35.80;99.90;;;;;;5062472;28;20383;-81
2022/06/03 06:45:07;;;;;;;;;;;36.40;99.90;;;;;;5062294;28;19926;-82
2022/06/03 06:47:33;;;;;;;;;;;37.20;99.90;;;;;;5059358;28;20404;-83
2022/06/03 06:50:13;;;;;;;;;;;37.60;99.90;;;;;;5061802;28;19916;-83
2022/06/03 06:52:42;;;;;;;;;;;38.10;99.90;;;;;;5078131;28;19913;-83
2022/06/03 06:55:25;;;;;;;;;;;37.80;99.90;;;;;;5062323;28;19928;-82
2022/06/03 06:57:54;;;;;;;;;;;38.90;99.90;;;;;;5076767;28;19919;-82
2022/06/03 07:00:36;;;;;;;;;;;39.70;99.90;;;;;;5077729;28;19995;-84
2022/06/03 07:03:02;;;;;;;;;;;40.20;99.90;;;;;;5077628;28;19909;-81
2022/06/03 07:05:28;;;;;;;;;;;41.90;99.90;;;;;;5076065;28;19960;-82
2022/06/03 07:07:56;;;;;;;;;;;43.60;99.90;;;;;;5062848;28;19974;-83
2022/06/03 07:10:25;;;;;;;;;;;44.10;99.90;;;;;;5064148;28;19920;-83
2022/06/03 07:13:01;;;;;;;;;;;45.40;99.90;;;;;;5063937;28;20091;-82
2022/06/03 07:15:32;;;;;;;;;;;46.90;99.90;;;;;;5069035;28;19913;-82
2022/06/03 07:21:01;;;;;;;;;;;48.20;99.90;;;;;;5061631;28;19924;-82
2022/06/03 07:23:26;;;;;;;;;;;49.10;99.90;;;;;;5063947;28;19919;-82
2022/06/03 07:25:57;;;;;;;;;;;47.50;96.40;;;;;;5072590;28;19960;-83
2022/06/03 07:28:28;;;;;;;;;;;48.30;95.60;;;;;;5074218;28;19976;-82
2022/06/03 07:30:57;;;;;;;;;;;48.10;93.50;;;;;;5068122;28;19920;-82
2022/06/03 07:33:29;;;;;;;;;;;49.00;92.90;;;;;;5064517;28;19913;-82
2022/06/03 07:35:58;;;;;;;;;;;49.50;91.30;;;;;;5075402;28;20284;-82
2022/06/03 07:38:33;;;;;;;;;;;50.00;90.90;;;;;;5060184;28;19959;-83
2022/06/03 07:41:01;;;;;;;;;;;51.00;90.80;;;;;;5066846;28;19920;-82
2022/06/03 07:43:33;;;;;;;;;;;50.30;86.10;;;;;;5063050;28;19913;-80
2022/06/03 07:46:00;;;;;;;;;;;50.10;80.90;;;;;;5061988;28;20392;-80
2022/06/03 07:48:29;;;;;;;;;;;48.80;73.90;;;;;;5061052;28;19916;-80
2022/06/03 07:51:03;;;;;;;;;;;47.40;68.30;;;;;;5064201;28;19956;-79
2022/06/03 07:53:35;;;;;;;;;;;48.30;68.90;;;;;;5057868;28;19913;-79
2022/06/03 07:56:00;;;;;;;;;;;48.60;69.30;;;;;;5059509;28;19923;-79
2022/06/03 07:58:29;;;;;;;;;;;49.50;70.50;;;;;;5057188;28;19913;-80
2022/06/03 08:00:55;;;;;;;;;;;50.10;71.60;;;;;;5057754;28;20288;-80
2022/06/03 08:03:22;;;;;;;;;;;49.00;64.40;;;;;;5057282;28;19913;-80
2022/06/03 08:05:49;;;;;;;;;;;48.30;61.60;;;;;;5068959;28;19916;-79
2022/06/03 08:11:09;;;;;;;;;;;47.30;58.60;;;;;;5052087;28;19924;-79
2022/06/03 08:13:44;;;;;;;;;;;48.10;60.50;;;;;;5053474;28;20358;-79
2022/06/03 08:16:19;;;;;;;;;;;48.70;62.50;;;;;;5064679;28;19916;-80
2022/06/03 08:18:44;;;;;;;;;;;48.60;62.10;;;;;;5052413;28;19921;-79
2022/06/03 08:21:12;;;;;;;;;;;49.30;63.30;;;;;;5056095;28;19927;-80
2022/06/03 08:23:38;;;;;;;;;;;50.60;65.60;;;;;;5063876;28;19962;-79
2022/06/03 08:26:07;;;;;;;;;;;51.50;66.70;;;;;;5067237;28;19963;-80
2022/06/03 08:28:33;;;;;;;;;;;51.30;64.10;;;;;;5050643;28;20380;-79
2022/06/03 08:31:00;;;;;;;;;;;50.60;60.60;;;;;;5057728;28;19912;-79
2022/06/03 08:33:47;;;;;;;;;;;49.80;57.40;;;;;;5051315;28;20505;-80
2022/06/03 08:36:16;;;;;;;;;;;49.60;56.60;;;;;;5059070;28;19924;-79
2022/06/03 08:38:44;;;;;;;;;;;50.70;59.40;;;;;;5066508;28;19917;-80
2022/06/03 08:41:16;;;;;;;;;;;49.90;56.80;;;;;;5070684;28;20206;-80
2022/06/03 08:44:00;;;;;;;;;;;49.60;55.10;;;;;;5057487;28;19959;-79
2022/06/03 08:46:35;;;;;;;;;;;49.20;54.70;;;;;;5074651;28;19916;-80
2022/06/03 08:49:02;;;;;;;;;;;50.00;56.00;;;;;;5057937;28;19925;-81
2022/06/03 08:51:40;;;;;;;;;;;49.90;55.30;;;;;;5064405;28;19932;-81
2022/06/03 08:54:09;;;;;;;;;;;50.20;56.20;;;;;;5054368;28;19912;-80
2022/06/03 08:56:35;;;;;;;;;;;49.90;55.50;;;;;;5055416;28;19960;-80
2022/06/03 08:59:04;;;;;;;;;;;50.10;55.00;;;;;;5057061;28;20003;-80
2022/06/03 09:01:32;;;;;;;;;;;49.10;53.20;;;;;;5060113;28;19913;-80
2022/06/03 09:04:08;;;;;;;;;;;49.20;53.60;;;;;;5057903;28;19913;-80
2022/06/03 09:07:00;;;;;;;;;;;48.20;50.50;;;;;;5051119;28;20424;-80
2022/06/03 09:09:35;;;;;;;;;;;45.50;45.60;;;;;;5047563;28;19963;-80
2022/06/03 09:12:01;;;;;;;;;;;44.70;44.30;;;;;;5055646;28;19920;-80
2022/06/03 09:14:27;;;;;;;;;;;44.50;44.60;;;;;;5075445;28;19913;-80
2022/06/03 09:16:57;;;;;;;;;;;45.20;47.80;;;;;;5074025;28;20403;-79
2022/06/03 09:19:26;;;;;;;;;;;46.30;50.40;;;;;;5073439;28;19913;-79
2022/06/03 09:21:53;;;;;;;;;;;46.50;51.30;;;;;;5075997;28;20379;-80
2022/06/03 09:24:21;;;;;;;;;;;47.00;51.90;;;;;;5056270;28;19917;-79
2022/06/03 09:26:49;;;;;;;;;;;47.60;52.80;;;;;;5058804;28;19913;-79
2022/06/03 09:29:15;;;;;;;;;;;48.10;52.90;;;;;;5075397;28;19917;-79
2022/06/03 09:31:43;;;;;;;;;;;47.00;50.00;;;;;;5061821;28;19913;-79
2022/06/03 09:34:11;;;;;;;;;;;46.20;47.60;;;;;;5056576;28;20035;-80
2022/06/03 09:36:36;;;;;;;;;;;45.10;45.20;;;;;;5047398;28;19920;-79
2022/06/03 09:39:12;;;;;;;;;;;44.10;43.30;;;;;;5065204;28;19969;-78
2022/06/03 09:41:42;;;;;;;;;;;42.80;41.70;;;;;;5051601;28;19989;-79
2022/06/03 09:44:10;;;;;;;;;;;41.80;40.30;;;;;;5059515;28;19935;-79
2022/06/03 09:46:35;;;;;;;;;;;42.10;41.70;;;;;;5061528;28;19967;-79
2022/06/03 09:49:02;;;;;;;;;;;44.00;47.00;;;;;;5076714;28;19917;-80
2022/06/03 09:54:19;;;;;;;;;;;45.20;50.80;;;;;;5060269;28;19928;-79
2022/06/03 09:56:48;;;;;;;;;;;45.10;49.70;;;;;;5065565;28;19917;-79
2022/06/03 09:59:13;;;;;;;;;;;44.10;47.10;;;;;;5063150;28;20021;-79
2022/06/03 10:01:39;;;;;;;;;;;43.50;46.40;;;;;;5061272;28;19921;-79
2022/06/03 10:04:05;;;;;;;;;;;43.70;47.00;;;;;;5056584;28;19920;-79
2022/06/03 10:06:43;;;;;;;;;;;43.30;46.70;;;;;;5059301;28;20007;-79
2022/06/03 10:14:42;;;;;;;;;;;42.90;47.00;;;;;;5061699;28;20284;-79
2022/06/03 10:17:09;;;;;;;;;;;42.90;46.80;;;;;;5059586;28;19917;-79
2022/06/03 10:19:35;;;;;;;;;;;43.20;47.90;;;;;;5060125;28;19917;-79
2022/06/03 10:22:05;;;;;;;;;;;43.90;50.20;;;;;;5064537;28;19996;-79
2022/06/03 10:24:32;;;;;;;;;;;44.30;50.70;;;;;;5061018;28;19924;-79
2022/06/03 10:26:58;;;;;;;;;;;44.50;50.20;;;;;;5059446;28;19916;-79
2022/06/03 10:29:25;;;;;;;;;;;44.60;50.80;;;;;;5071501;28;19921;-79
2022/06/03 10:32:01;;;;;;;;;;;43.20;47.60;;;;;;5056516;28;19920;-80
2022/06/03 10:34:31;;;;;;;;;;;40.70;41.80;;;;;;5057589;28;19913;-78
2022/06/03 10:36:57;;;;;;;;;;;39.30;39.30;;;;;;5058329;28;19920;-79
2022/06/03 10:39:30;;;;;;;;;;;38.80;39.90;;;;;;5057995;28;19988;-79
2022/06/03 10:41:58;;;;;;;;;;;40.30;44.80;;;;;;5062066;28;19947;-80
2022/06/03 10:44:28;;;;;;;;;;;40.00;44.70;;;;;;5057012;28;19982;-78
2022/06/03 10:46:57;;;;;;;;;;;39.70;44.50;;;;;;5063704;28;19972;-79
2022/06/03 10:49:24;;;;;;;;;;;39.70;45.60;;;;;;5076201;28;19935;-80
2022/06/03 11:02:50;;;;;;;;;;;40.90;49.50;;;;;;5052094;28;20032;-80
2022/06/03 11:05:26;;;;;;;;;;;39.20;44.40;;;;;;5057284;28;19964;-79
2022/06/03 11:08:03;;;;;;;;;;;38.20;42.10;;;;;;5058093;28;20391;-78
2022/06/03 11:10:50;;;;;;;;;;;35.90;36.60;;;;;;5070219;28;19913;-79
2022/06/03 11:13:32;;;;;;;;;;;35.30;36.50;;;;;;5058632;28;19921;-79
2022/06/03 11:16:11;;;;;;;;;;;36.20;41.70;;;;;;5060893;28;19917;-79
2022/06/03 11:18:36;;;;;;;;;;;37.50;46.80;;;;;;5057992;28;19920;-79
2022/06/03 11:21:22;;;;;;;;;;;38.60;51.00;;;;;;5059647;28;19921;-79
2022/06/03 11:23:49;;;;;;;;;;;39.40;52.30;;;;;;5069887;28;19917;-79
2022/06/03 11:26:14;;;;;;;;;;;39.80;53.40;;;;;;5056546;28;19927;-80
2022/06/03 11:28:48;;;;;;;;;;;39.80;52.80;;;;;;5058052;28;19920;-80
2022/06/03 11:31:23;;;;;;;;;;;39.90;53.50;;;;;;5050994;28;19967;-80
2022/06/03 11:33:52;;;;;;;;;;;40.10;54.50;;;;;;5054857;28;19959;-80
2022/06/03 11:36:18;;;;;;;;;;;39.60;52.50;;;;;;5068153;28;19974;-79
2022/06/03 11:38:49;;;;;;;;;;;38.50;49.50;;;;;;5052356;28;19916;-79
2022/06/03 11:41:34;;;;;;;;;;;38.10;48.60;;;;;;5063701;28;19981;-79
2022/06/03 11:44:05;;;;;;;;;;;37.80;49.20;;;;;;5051151;28;19913;-79
2022/06/03 11:46:38;;;;;;;;;;;38.10;51.10;;;;;;5056848;28;20399;-79
2022/06/03 11:49:05;;;;;;;;;;;38.80;52.60;;;;;;5067873;28;19916;-79
2022/06/03 11:51:31;;;;;;;;;;;38.50;53.30;;;;;;5052166;28;19953;-80
2022/06/03 11:53:57;;;;;;;;;;;38.10;51.80;;;;;;5050919;28;19959;-79
2022/06/03 11:56:24;;;;;;;;;;;38.00;52.20;;;;;;5052697;28;19916;-79
2022/06/03 11:59:22;;;;;;;;;;;38.20;53.10;;;;;;5052616;28;19920;-80
2022/06/03 12:01:51;;;;;;;;;;;37.70;52.10;;;;;;5052806;28;19913;-79
2022/06/03 12:04:21;;;;;;;;;;;36.10;47.60;;;;;;5051362;28;19921;-79
2022/06/03 12:06:59;;;;;;;;;;;35.50;46.90;;;;;;5059970;28;19964;-79
2022/06/03 12:09:51;;;;;;;;;;;35.70;48.70;;;;;;5070268;28;19917;-79
2022/06/03 12:15:25;;;;;;;;;;;35.60;50.40;;;;;;5053078;28;20027;-79
2022/06/03 12:17:50;;;;;;;;;;;35.00;49.20;;;;;;5065390;28;19916;-79
2022/06/03 12:20:31;;;;;;;;;;;35.10;51.50;;;;;;5064358;28;20283;-79
2022/06/03 12:23:12;;;;;;;;;;;35.60;52.70;;;;;;5058849;28;19913;-79
2022/06/03 12:25:40;;;;;;;;;;;35.70;53.50;;;;;;5052653;28;21111;-79
2022/06/03 12:28:12;;;;;;;;;;;35.40;53.20;;;;;;5053604;28;20388;-79
2022/06/03 12:30:45;;;;;;;;;;;35.40;54.10;;;;;;5055439;28;20390;-79
2022/06/03 12:33:20;;;;;;;;;;;35.40;54.80;;;;;;5054716;28;19920;-79
2022/06/03 12:35:52;;;;;;;;;;;35.10;54.80;;;;;;5054810;28;19917;-79
2022/06/03 12:38:20;;;;;;;;;;;35.20;55.10;;;;;;5057631;28;19994;-79
2022/06/03 12:40:53;;;;;;;;;;;35.40;56.70;;;;;;5061722;28;19915;-79
2022/06/03 12:43:27;;;;;;;;;;;35.90;58.70;;;;;;5055889;28;19928;-79
2022/06/03 12:46:19;;;;;;;;;;;36.30;59.10;;;;;;5058484;28;19967;-79
2022/06/03 12:48:45;;;;;;;;;;;36.50;59.80;;;;;;5067298;28;19991;-79
2022/06/03 12:51:22;;;;;;;;;;;36.20;59.60;;;;;;5059912;28;19912;-79
2022/06/03 12:53:48;;;;;;;;;;;36.20;58.50;;;;;;5059296;28;19913;-79
2022/06/03 12:56:30;;;;;;;;;;;36.40;59.50;;;;;;5060504;28;19923;-79
2022/06/03 12:58:58;;;;;;;;;;;35.70;57.70;;;;;;5071172;28;19979;-79
2022/06/03 13:01:34;;;;;;;;;;;35.00;55.40;;;;;;5059181;28;19920;-79
2022/06/03 13:04:18;;;;;;;;;;;34.50;54.00;;;;;;5075833;28;19959;-78
2022/06/03 13:07:02;;;;;;;;;;;34.90;57.10;;;;;;5058482;28;19955;-79
2022/06/03 13:10:03;;;;;;;;;;;35.40;57.60;;;;;;5052444;28;19920;-79
2022/06/03 13:12:49;;;;;;;;;;;34.90;57.00;;;;;;5057324;28;20340;-79
2022/06/03 13:15:17;;;;;;;;;;;35.30;58.00;;;;;;5059833;28;20344;-79
2022/06/03 13:17:58;;;;;;;;;;;34.80;56.70;;;;;;5059235;28;19912;-79
2022/06/03 13:20:39;;;;;;;;;;;34.10;56.30;;;;;;5072861;28;19928;-79
2022/06/03 13:23:34;;;;;;;;;;;33.90;54.70;;;;;;5057405;28;19912;-79
2022/06/03 13:26:18;;;;;;;;;;;34.40;56.90;;;;;;5074617;28;19998;-79
2022/06/03 13:28:44;;;;;;;;;;;34.60;58.10;;;;;;5073944;28;19912;-79
2022/06/03 13:31:10;;;;;;;;;;;34.90;58.80;;;;;;5063022;28;19921;-79
2022/06/03 13:33:54;;;;;;;;;;;34.60;58.30;;;;;;5061887;28;19913;-79
2022/06/03 13:36:34;;;;;;;;;;;34.30;58.10;;;;;;5062190;28;19917;-79
2022/06/03 13:39:00;;;;;;;;;;;34.40;58.50;;;;;;5062946;28;20426;-79
2022/06/03 13:44:42;;;;;;;;;;;33.90;58.20;;;;;;5061924;28;19958;-79
2022/06/03 13:47:17;;;;;;;;;;;33.60;57.90;;;;;;5063350;28;19927;-79
2022/06/03 13:49:53;;;;;;;;;;;33.10;56.20;;;;;;5075790;28;19924;-78
2022/06/03 13:52:29;;;;;;;;;;;32.10;54.50;;;;;;5062042;28;19916;-78
2022/06/03 13:55:02;;;;;;;;;;;31.80;55.10;;;;;;5059719;28;19920;-78
2022/06/03 13:57:32;;;;;;;;;;;31.60;55.90;;;;;;5056108;28;20316;-78
2022/06/03 14:00:06;;;;;;;;;;;31.10;71.60;;;;;;5060277;28;19936;-78
2022/06/03 14:02:34;;;;;;;;;;;31.10;56.90;;;;;;5058750;28;19913;-78
2022/06/03 14:05:08;;;;;;;;;;;31.30;58.60;;;;;;5064269;28;19913;-78
2022/06/03 14:07:36;;;;;;;;;;;31.30;59.90;;;;;;5061179;28;19917;-78
2022/06/03 14:10:06;;;;;;;;;;;31.30;61.50;;;;;;5063137;28;19920;-79
2022/06/03 14:12:49;;;;;;;;;;;31.20;62.10;;;;;;5062438;28;19966;-78
2022/06/03 14:15:22;;;;;;;;;;;31.40;63.60;;;;;;5061247;28;19916;-78
2022/06/03 14:17:52;;;;;;;;;;;31.10;63.20;;;;;;5057108;28;19952;-79
2022/06/03 14:20:20;;;;;;;;;;;31.30;64.80;;;;;;5061013;28;20283;-79
2022/06/03 14:23:01;;;;;;;;;;;31.20;65.40;;;;;;5060853;28;19908;-79
2022/06/03 14:25:33;;;;;;;;;;;31.50;67.50;;;;;;5059813;28;19954;-78
2022/06/03 14:28:05;;;;;;;;;;;31.60;68.60;;;;;;5059643;28;19913;-79
2022/06/03 14:30:37;;;;;;;;;;;31.60;69.20;;;;;;5058411;28;20377;-78
2022/06/03 14:33:03;;;;;;;;;;;31.70;70.10;;;;;;5061231;28;19921;-79
2022/06/03 14:35:36;;;;;;;;;;;31.70;70.10;;;;;;5058683;28;20329;-79
2022/06/03 14:38:07;;;;;;;;;;;31.90;70.80;;;;;;5058537;28;20431;-79
2022/06/03 14:40:34;;;;;;;;;;;32.10;73.90;;;;;;5059469;28;20365;-79
2022/06/03 14:43:01;;;;;;;;;;;32.20;74.70;;;;;;5057211;28;19913;-79
2022/06/03 14:45:33;;;;;;;;;;;32.40;74.60;;;;;;5055596;28;20394;-78
2022/06/03 14:48:00;;;;;;;;;;;32.20;91.30;;;;;;5067789;28;19920;-79
2022/06/03 14:50:31;;;;;;;;;;;32.30;75.80;;;;;;5049057;28;19932;-79
2022/06/03 14:52:59;;;;;;;;;;;32.20;75.50;;;;;;5053090;28;19913;-79
2022/06/03 14:55:25;;;;;;;;;;;31.80;73.90;;;;;;5053080;28;19924;-78
2022/06/03 14:58:08;;;;;;;;;;;31.60;72.80;;;;;;5061971;28;19912;-79
2022/06/03 15:00:54;;;;;;;;;;;31.60;74.20;;;;;;5050086;28;20008;-79
2022/06/03 15:03:32;;;;;;;;;;;31.20;71.40;;;;;;5048071;28;19923;-79
2022/06/03 15:05:59;;;;;;;;;;;31.00;72.60;;;;;;5050099;28;19979;-79
2022/06/03 15:08:45;;;;;;;;;;;30.90;71.60;;;;;;5051522;28;19917;-79
2022/06/03 15:11:18;;;;;;;;;;;30.60;72.00;;;;;;5047019;28;19913;-79
2022/06/03 15:13:48;;;;;;;;;;;30.70;75.80;;;;;;5067727;28;20315;-79
2022/06/03 15:16:14;;;;;;;;;;;30.60;74.70;;;;;;5049806;28;19929;-79
2022/06/03 15:18:41;;;;;;;;;;;30.60;76.50;;;;;;5048704;28;19913;-80
2022/06/03 15:21:10;;;;;;;;;;;30.60;77.30;;;;;;5051190;28;19913;-79
2022/06/03 15:23:37;;;;;;;;;;;30.80;78.90;;;;;;5053079;28;19912;-78
2022/06/03 15:26:05;;;;;;;;;;;30.80;80.50;;;;;;5051055;28;20327;-79
2022/06/03 15:28:30;;;;;;;;;;;30.60;80.10;;;;;;5052098;28;20565;-79
2022/06/03 15:31:06;;;;;;;;;;;30.50;79.20;;;;;;5054382;28;19909;-79